createdAt,value
2022-11-20T00:01:37.220Z,73.80
2022-11-20T00:04:05.567Z,64.70
2022-11-20T00:06:33.704Z,72.30
2022-11-20T00:09:02.914Z,71.40
2022-11-20T00:11:32.628Z,69.30
2022-11-20T00:14:02.848Z,67.60
2022-11-20T00:16:33.306Z,71.70
2022-11-20T00:19:02.138Z,61.00
2022-11-20T00:21:31.283Z,61.00
2022-11-20T00:23:59.849Z,60.70
2022-11-20T00:26:29.215Z,65.90
2022-11-20T00:29:02.044Z,57.90
2022-11-20T00:31:31.478Z,60.30
2022-11-20T00:33:59.614Z,58.40
2022-11-20T00:36:29.756Z,61.10
2022-11-20T00:38:59.310Z,59.50
2022-11-20T00:41:28.951Z,59.50
2022-11-20T00:43:57.807Z,61.60
2022-11-20T00:46:28.301Z,61.10
2022-11-20T00:48:57.003Z,72.70
2022-11-20T00:51:27.406Z,71.40
2022-11-20T00:53:57.455Z,74.00
2022-11-20T00:56:25.693Z,72.50
2022-11-20T00:58:54.037Z,60.80
2022-11-20T01:01:27.029Z,64.80
2022-11-20T01:03:59.004Z,63.40
2022-11-20T01:06:30.286Z,68.80
2022-11-20T01:09:01.747Z,64.80
2022-11-20T01:11:32.970Z,59.30
2022-11-20T01:16:37.352Z,62.40
2022-11-20T01:19:08.008Z,78.90
2022-11-20T01:21:39.015Z,75.70
2022-11-20T01:24:09.303Z,78.30
2022-11-20T01:26:39.423Z,83.10
2022-11-20T01:29:12.576Z,78.50
2022-11-20T01:31:40.902Z,77.70
2022-11-20T01:34:13.415Z,81.40
2022-11-20T01:36:42.840Z,88.90
2022-11-20T01:39:20.057Z,73.40
2022-11-20T01:42:10.424Z,70.80
2022-11-20T01:45:25.375Z,72.50
2022-11-20T01:47:53.650Z,73.90
2022-11-20T01:50:33.651Z,81.40
2022-11-20T01:53:09.613Z,124.40
2022-11-20T01:55:43.223Z,106.60
2022-11-20T01:58:11.502Z,88.70
2022-11-20T02:00:39.725Z,80.50
2022-11-20T02:03:27.701Z,75.90
2022-11-20T02:06:08.989Z,75.20
2022-11-20T02:08:39.142Z,68.90
2022-11-20T02:11:07.654Z,63.30
2022-11-20T02:13:45.101Z,67.30
2022-11-20T02:16:26.020Z,69.40
2022-11-20T02:18:57.785Z,79.70
2022-11-20T02:21:30.500Z,69.20
2022-11-20T02:24:05.711Z,82.10
2022-11-20T02:26:58.977Z,79.60
2022-11-20T02:29:38.426Z,73.60
2022-11-20T02:32:06.810Z,71.30
2022-11-20T02:34:34.906Z,67.90
2022-11-20T02:37:03.087Z,76.10
2022-11-20T02:39:31.416Z,77.80
2022-11-20T02:42:02.182Z,71.60
2022-11-20T02:44:30.375Z,76.60
2022-11-20T02:46:59.844Z,68.00
2022-11-20T02:49:28.051Z,68.50
2022-11-20T02:51:56.269Z,66.90
2022-11-20T02:54:25.440Z,75.40
2022-11-20T02:56:53.703Z,83.90
2022-11-20T02:59:22.190Z,72.80
2022-11-20T03:01:50.888Z,73.80
2022-11-20T03:04:19.115Z,80.30
2022-11-20T03:06:47.125Z,67.90
2022-11-20T03:09:15.166Z,67.00
2022-11-20T03:11:43.533Z,63.50
2022-11-20T03:14:11.594Z,65.40
2022-11-20T03:16:39.824Z,68.50
2022-11-20T03:19:08.088Z,63.10
2022-11-20T03:21:36.916Z,62.20
2022-11-20T03:24:05.598Z,69.80
2022-11-20T03:26:34.531Z,62.70
2022-11-20T03:29:05.366Z,69.50
2022-11-20T03:31:41.446Z,58.00
2022-11-20T03:34:11.904Z,58.80
2022-11-20T03:36:41.302Z,59.80
2022-11-20T03:39:09.829Z,63.50
2022-11-20T03:41:40.366Z,58.70
2022-11-20T03:44:10.889Z,60.90
2022-11-20T03:46:39.941Z,57.50
2022-11-20T03:49:08.076Z,61.20
2022-11-20T03:51:37.073Z,58.10
2022-11-20T03:54:08.700Z,59.50
2022-11-20T03:56:39.285Z,62.60
2022-11-20T03:59:07.831Z,60.90
2022-11-20T04:01:38.575Z,57.60
2022-11-20T04:04:07.138Z,62.40
2022-11-20T04:06:38.616Z,65.20
2022-11-20T04:09:06.936Z,53.60
2022-11-20T04:11:38.403Z,58.60
2022-11-20T04:14:08.066Z,58.90
2022-11-20T04:16:37.423Z,53.70
2022-11-20T04:19:10.024Z,60.70
2022-11-20T04:21:38.513Z,59.20
2022-11-20T04:24:07.146Z,63.60
2022-11-20T04:26:36.046Z,62.60
2022-11-20T04:29:04.957Z,61.40
2022-11-20T04:31:34.926Z,62.80
2022-11-20T04:34:05.390Z,61.40
2022-11-20T04:36:34.277Z,56.40
2022-11-20T04:39:05.072Z,50.60
2022-11-20T04:41:36.139Z,53.10
2022-11-20T04:44:06.215Z,54.40
2022-11-20T04:46:39.817Z,57.20
2022-11-20T04:49:11.481Z,56.50
2022-11-20T04:51:39.793Z,61.00
2022-11-20T04:54:07.916Z,60.80
2022-11-20T04:56:36.039Z,52.40
2022-11-20T04:59:04.436Z,58.50
2022-11-20T05:01:33.778Z,64.90
2022-11-20T05:04:02.096Z,64.70
2022-11-20T05:06:30.216Z,65.60
2022-11-20T05:08:58.744Z,59.60
2022-11-20T05:11:30.008Z,60.30
2022-11-20T05:14:00.046Z,61.30
2022-11-20T05:16:29.543Z,65.60
2022-11-20T05:18:57.717Z,62.00
2022-11-20T05:21:26.116Z,60.40
2022-11-20T05:23:54.526Z,58.80
2022-11-20T05:26:23.280Z,55.90
2022-11-20T05:28:52.757Z,59.40
2022-11-20T05:31:27.215Z,59.80
2022-11-20T05:33:58.274Z,65.30
2022-11-20T05:36:26.824Z,59.00
2022-11-20T05:39:01.080Z,53.60
2022-11-20T05:41:30.943Z,58.60
2022-11-20T05:43:59.873Z,55.90
2022-11-20T05:46:29.510Z,59.80
2022-11-20T05:48:59.305Z,64.00
2022-11-20T05:51:27.953Z,64.60
2022-11-20T05:53:59.700Z,59.30
2022-11-20T05:56:28.175Z,66.10
2022-11-20T05:58:57.141Z,60.00
2022-11-20T06:01:29.577Z,59.80
2022-11-20T06:03:57.727Z,54.20
2022-11-20T06:06:27.046Z,57.50
2022-11-20T06:08:56.403Z,68.50
2022-11-20T06:11:24.623Z,67.60
2022-11-20T06:13:52.915Z,64.30
2022-11-20T06:16:21.490Z,63.70
2022-11-20T06:18:49.860Z,84.50
2022-11-20T06:21:20.623Z,86.40
2022-11-20T06:23:51.202Z,70.30
2022-11-20T06:26:28.688Z,79.60
2022-11-20T06:28:57.371Z,69.20
2022-11-20T06:31:26.983Z,68.10
2022-11-20T06:33:55.475Z,66.50
2022-11-20T06:36:24.806Z,78.40
2022-11-20T06:38:53.050Z,70.50
2022-11-20T06:41:23.004Z,78.80
2022-11-20T06:43:51.938Z,79.70
2022-11-20T06:46:21.578Z,78.30
2022-11-20T06:48:50.516Z,74.40
2022-11-20T06:51:19.545Z,76.60
2022-11-20T06:53:47.873Z,84.50
2022-11-20T06:56:16.299Z,85.20
2022-11-20T06:58:47.115Z,83.10
2022-11-20T07:01:16.663Z,102.50
2022-11-20T07:03:45.791Z,102.50
2022-11-20T07:06:16.298Z,84.00
2022-11-20T07:08:44.455Z,85.00
2022-11-20T07:11:13.201Z,87.60
2022-11-20T07:13:41.555Z,84.00
2022-11-20T07:16:10.119Z,86.90
2022-11-20T07:18:38.484Z,80.00
2022-11-20T07:21:10.621Z,77.00
2022-11-20T07:23:41.453Z,85.90
2022-11-20T07:26:12.381Z,84.10
2022-11-20T07:28:40.703Z,91.10
2022-11-20T07:31:09.106Z,77.30
2022-11-20T07:33:39.140Z,92.50
2022-11-20T07:36:07.685Z,88.40
2022-11-20T07:38:35.934Z,76.50
2022-11-20T07:41:04.295Z,70.70
2022-11-20T07:43:35.870Z,71.50
2022-11-20T07:46:08.450Z,77.40
2022-11-20T07:48:36.742Z,68.50
2022-11-20T07:51:04.983Z,69.40
2022-11-20T07:53:33.523Z,78.00
2022-11-20T07:56:02.570Z,73.10
2022-11-20T07:58:35.627Z,72.40
2022-11-20T08:03:40.962Z,63.40
2022-11-20T08:06:09.953Z,66.80
2022-11-20T08:08:43.247Z,71.20
2022-11-20T08:11:30.533Z,70.00
2022-11-20T08:14:14.595Z,67.10
2022-11-20T08:16:49.765Z,71.30
2022-11-20T08:19:19.870Z,71.80
2022-11-20T08:21:48.675Z,66.30
2022-11-20T08:24:17.049Z,73.30
2022-11-20T08:26:45.706Z,67.30
2022-11-20T08:29:17.057Z,63.30
2022-11-20T08:31:45.386Z,66.10
2022-11-20T08:34:35.177Z,71.80
2022-11-20T08:37:03.989Z,86.50
2022-11-20T08:39:32.807Z,74.70
2022-11-20T08:42:01.573Z,82.50
2022-11-20T08:44:30.106Z,73.60
2022-11-20T08:46:58.366Z,69.30
2022-11-20T08:49:26.747Z,70.50
2022-11-20T08:51:56.304Z,72.90
2022-11-20T08:54:24.619Z,64.50
2022-11-20T08:56:52.999Z,66.00
2022-11-20T08:59:37.288Z,63.90
2022-11-20T09:02:09.989Z,63.00
2022-11-20T09:04:38.780Z,59.20
2022-11-20T09:07:06.986Z,66.80
2022-11-20T09:09:35.898Z,63.00
2022-11-20T09:12:04.440Z,70.30
2022-11-20T09:14:32.832Z,67.50
2022-11-20T09:17:01.086Z,63.40
2022-11-20T09:19:35.369Z,50.30
2022-11-20T09:22:05.029Z,55.10
2022-11-20T09:24:33.143Z,68.40
2022-11-20T09:27:03.945Z,70.30
2022-11-20T09:29:32.132Z,65.20
2022-11-20T09:32:00.148Z,61.10
2022-11-20T09:34:28.259Z,52.30
2022-11-20T09:36:56.640Z,56.00
2022-11-20T09:39:24.981Z,51.50
2022-11-20T09:42:20.503Z,48.90
2022-11-20T09:44:59.497Z,45.70
2022-11-20T09:47:50.366Z,48.30
2022-11-20T09:50:21.302Z,49.50
2022-11-20T09:53:14.320Z,51.50
2022-11-20T09:55:43.983Z,43.40
2022-11-20T09:58:26.766Z,42.60
2022-11-20T10:00:57.835Z,43.20
2022-11-20T10:03:57.309Z,37.70
2022-11-20T10:06:33.988Z,40.00
2022-11-20T10:09:21.328Z,47.20
2022-11-20T10:12:06.921Z,47.30
2022-11-20T10:14:43.885Z,49.80
2022-11-20T10:17:46.150Z,51.20
2022-11-20T10:20:22.432Z,44.20
2022-11-20T10:23:02.206Z,41.50
2022-11-20T10:25:45.774Z,44.40
2022-11-20T10:28:32.811Z,46.60
2022-11-20T10:31:09.344Z,42.60
2022-11-20T10:34:05.042Z,46.20
2022-11-20T10:36:40.130Z,50.80
2022-11-20T10:39:16.350Z,42.70
2022-11-20T10:41:50.965Z,42.90
2022-11-20T10:45:05.622Z,38.60
2022-11-20T10:47:35.108Z,37.50
2022-11-20T10:50:11.102Z,37.40
2022-11-20T10:52:57.313Z,33.90
2022-11-20T10:55:41.468Z,38.50
2022-11-20T10:58:18.138Z,34.20
2022-11-20T11:01:07.011Z,36.00
2022-11-20T11:03:35.863Z,41.60
2022-11-20T11:06:35.024Z,39.70
2022-11-20T11:09:14.460Z,37.10
2022-11-20T11:11:45.235Z,46.30
2022-11-20T11:14:16.649Z,43.20
2022-11-20T11:16:56.663Z,44.20
2022-11-20T11:19:25.923Z,48.20
2022-11-20T11:21:57.939Z,46.20
2022-11-20T11:24:41.816Z,49.10
2022-11-20T11:27:19.225Z,54.20
2022-11-20T11:29:47.973Z,51.00
2022-11-20T11:32:19.706Z,55.70
2022-11-20T11:35:04.075Z,45.40
2022-11-20T11:37:37.408Z,53.10
2022-11-20T11:40:24.632Z,49.00
2022-11-20T11:43:03.551Z,50.70
2022-11-20T11:45:34.488Z,51.30
2022-11-20T11:48:05.252Z,49.50
2022-11-20T11:50:34.274Z,46.00
2022-11-20T11:53:16.480Z,48.00
2022-11-20T11:56:09.477Z,47.60
2022-11-20T11:58:55.086Z,50.20
2022-11-20T12:01:42.863Z,49.10
2022-11-20T12:04:47.536Z,49.90
2022-11-20T12:07:55.102Z,53.60
2022-11-20T12:10:26.219Z,48.00
2022-11-20T12:15:35.226Z,46.80
2022-11-20T12:18:05.668Z,49.90
2022-11-20T12:20:46.526Z,37.40
2022-11-20T12:23:43.505Z,48.60
2022-11-20T12:26:40.034Z,44.70
2022-11-20T12:29:20.046Z,48.40
2022-11-20T12:32:12.412Z,46.20
2022-11-20T12:34:49.664Z,36.60
2022-11-20T12:37:38.857Z,35.30
2022-11-20T12:40:40.053Z,44.50
2022-11-20T12:43:47.653Z,37.80
2022-11-20T12:46:32.859Z,38.00
2022-11-20T12:49:25.716Z,40.80
2022-11-20T12:52:18.944Z,36.20
2022-11-20T12:55:18.717Z,41.10
2022-11-20T12:58:12.805Z,37.90
2022-11-20T13:01:07.976Z,40.90
2022-11-20T13:03:46.696Z,38.80
2022-11-20T13:06:20.103Z,35.60
2022-11-20T13:08:57.169Z,43.90
2022-11-20T13:12:03.810Z,38.70
2022-11-20T13:14:35.172Z,37.70
2022-11-20T13:17:18.578Z,40.10
2022-11-20T13:19:55.981Z,37.30
2022-11-20T13:22:28.989Z,36.70
2022-11-20T13:25:00.333Z,37.40
2022-11-20T13:27:32.063Z,36.10
2022-11-20T13:30:12.955Z,37.80
2022-11-20T13:32:50.742Z,32.50
2022-11-20T13:35:55.549Z,32.40
2022-11-20T13:38:23.766Z,30.70
2022-11-20T13:40:53.623Z,33.10
2022-11-20T13:43:27.982Z,43.20
2022-11-20T13:45:57.212Z,37.30
2022-11-20T13:48:29.479Z,41.60
2022-11-20T13:51:19.217Z,40.20
2022-11-20T13:54:23.912Z,35.00
2022-11-20T13:56:59.843Z,34.60
2022-11-20T13:59:53.831Z,41.60
2022-11-20T14:02:24.395Z,39.80
2022-11-20T14:04:55.173Z,36.20
2022-11-20T14:07:28.490Z,30.60
2022-11-20T14:09:59.061Z,33.20
2022-11-20T14:12:32.280Z,33.60
2022-11-20T14:15:00.559Z,38.50
2022-11-20T14:17:34.929Z,38.10
2022-11-20T14:20:07.286Z,33.20
2022-11-20T14:22:36.385Z,37.40
2022-11-20T14:25:19.274Z,35.40
2022-11-20T14:27:53.100Z,34.70
2022-11-20T14:30:27.874Z,39.00
2022-11-20T14:33:03.074Z,43.30
2022-11-20T14:35:36.459Z,42.20
2022-11-20T14:38:05.248Z,44.20
2022-11-20T14:40:37.350Z,44.40
2022-11-20T14:43:27.237Z,58.90
2022-11-20T14:45:58.619Z,45.30
2022-11-20T14:48:33.482Z,48.60
2022-11-20T14:51:01.589Z,43.50
2022-11-20T14:53:30.330Z,44.00
2022-11-20T14:56:00.550Z,42.40
2022-11-20T14:58:34.907Z,45.50
2022-11-20T15:01:07.519Z,45.80
2022-11-20T15:03:41.152Z,48.40
2022-11-20T15:06:13.115Z,51.60
2022-11-20T15:08:52.364Z,42.40
2022-11-20T15:11:38.990Z,46.50
2022-11-20T15:14:08.175Z,49.10
2022-11-20T15:16:36.539Z,52.70
2022-11-20T15:19:17.951Z,57.10
2022-11-20T15:21:46.165Z,50.40
2022-11-20T15:24:14.573Z,50.70
2022-11-20T15:26:43.504Z,48.80
2022-11-20T15:29:20.284Z,53.80
2022-11-20T15:31:48.411Z,61.00
2022-11-20T15:34:16.815Z,65.10
2022-11-20T15:36:45.263Z,69.70
2022-11-20T15:39:13.401Z,60.30
2022-11-20T15:41:41.691Z,62.10
2022-11-20T15:44:09.863Z,59.10
2022-11-20T15:46:41.191Z,64.50
2022-11-20T15:49:15.354Z,56.00
2022-11-20T15:51:49.110Z,54.40
2022-11-20T15:54:23.687Z,63.70
2022-11-20T15:56:54.875Z,57.20
2022-11-20T16:01:51.190Z,52.00
2022-11-20T16:04:19.600Z,70.70
2022-11-20T16:06:48.033Z,68.20
2022-11-20T16:09:16.228Z,59.00
2022-11-20T16:11:44.549Z,51.80
2022-11-20T16:14:31.363Z,51.10
2022-11-20T16:16:59.593Z,53.60
2022-11-20T16:19:28.111Z,51.80
2022-11-20T16:22:02.441Z,56.70
2022-11-20T16:24:31.644Z,64.50
2022-11-20T16:26:59.888Z,59.60
2022-11-20T16:29:27.989Z,53.20
2022-11-20T16:31:57.804Z,56.60
2022-11-20T16:34:26.223Z,71.80
2022-11-20T16:36:54.412Z,59.70
2022-11-20T16:39:24.140Z,55.00
2022-11-20T16:41:52.799Z,60.30
2022-11-20T16:44:21.996Z,57.20
2022-11-20T16:46:50.905Z,61.40
2022-11-20T16:49:19.275Z,51.10
2022-11-20T16:51:47.415Z,53.30
2022-11-20T16:54:20.512Z,53.60
2022-11-20T16:56:51.144Z,50.40
2022-11-20T16:59:19.497Z,56.20
2022-11-20T17:01:47.775Z,54.00
2022-11-20T17:04:18.686Z,51.10
2022-11-20T17:06:48.109Z,49.60
2022-11-20T17:09:16.408Z,54.20
2022-11-20T17:11:44.563Z,55.60
2022-11-20T17:14:13.329Z,53.30
2022-11-20T17:16:41.679Z,52.10
2022-11-20T17:19:10.118Z,59.70
2022-11-20T17:21:39.900Z,57.40
2022-11-20T17:24:10.841Z,58.10
2022-11-20T17:29:11.839Z,49.90
2022-11-20T17:31:40.874Z,58.00
2022-11-20T17:34:12.181Z,56.60
2022-11-20T17:36:45.513Z,65.60
2022-11-20T17:39:15.676Z,56.50
2022-11-20T17:42:07.052Z,52.70
2022-11-20T17:44:35.440Z,52.40
2022-11-20T17:47:06.520Z,54.70
2022-11-20T17:52:03.145Z,54.90
2022-11-20T17:57:23.128Z,56.90
2022-11-20T17:59:51.187Z,63.60
2022-11-20T18:02:19.382Z,61.10
2022-11-20T18:04:47.698Z,64.00
2022-11-20T18:07:15.909Z,64.20
2022-11-20T18:09:44.418Z,59.40
2022-11-20T18:12:12.914Z,67.20
2022-11-20T18:14:41.842Z,57.90
2022-11-20T18:17:14.284Z,58.20
2022-11-20T18:20:06.806Z,57.10
2022-11-20T18:22:33.963Z,56.70
2022-11-20T18:25:05.155Z,62.20
2022-11-20T18:27:33.194Z,56.00
2022-11-20T18:30:01.552Z,57.40
2022-11-20T18:32:29.724Z,52.60
2022-11-20T18:34:57.899Z,60.90
2022-11-20T18:37:26.666Z,64.90
2022-11-20T18:39:56.105Z,64.70
2022-11-20T18:42:43.067Z,67.70
2022-11-20T18:45:11.475Z,69.70
2022-11-20T18:47:40.229Z,68.10
2022-11-20T18:50:09.942Z,70.20
2022-11-20T18:52:44.712Z,74.00
2022-11-20T18:55:13.717Z,65.40
2022-11-20T18:57:42.024Z,71.30
2022-11-20T19:00:10.756Z,62.30
2022-11-20T19:02:42.752Z,71.20
2022-11-20T19:05:14.135Z,72.50
2022-11-20T19:07:43.185Z,59.70
2022-11-20T19:10:12.709Z,73.20
2022-11-20T19:12:40.846Z,75.80
2022-11-20T19:15:09.377Z,82.60
2022-11-20T19:17:37.833Z,90.90
2022-11-20T19:20:07.076Z,87.60
2022-11-20T19:22:35.203Z,84.60
2022-11-20T19:25:03.384Z,74.30
2022-11-20T19:27:31.541Z,77.90
2022-11-20T19:30:03.358Z,75.10
2022-11-20T19:32:32.715Z,76.50
2022-11-20T19:35:01.103Z,69.70
2022-11-20T19:37:29.351Z,78.60
2022-11-20T19:39:59.663Z,82.00
2022-11-20T19:42:27.988Z,73.10
2022-11-20T19:44:58.231Z,70.90
2022-11-20T19:47:46.117Z,75.50
2022-11-20T19:50:16.488Z,77.90
2022-11-20T19:52:44.667Z,85.30
2022-11-20T19:55:12.914Z,79.20
2022-11-20T19:57:41.112Z,75.70
2022-11-20T20:00:09.876Z,62.90
2022-11-20T20:02:37.901Z,64.30
2022-11-20T20:05:07.143Z,74.70
2022-11-20T20:07:35.311Z,66.50
2022-11-20T20:10:03.565Z,66.70
2022-11-20T20:12:31.872Z,69.10
2022-11-20T20:14:59.929Z,74.20
2022-11-20T20:17:28.072Z,67.90
2022-11-20T20:19:56.549Z,69.70
2022-11-20T20:22:24.654Z,72.80
2022-11-20T20:24:52.769Z,72.10
2022-11-20T20:27:20.975Z,72.20
2022-11-20T20:29:49.102Z,70.30
2022-11-20T20:32:20.118Z,61.10
2022-11-20T20:34:48.494Z,64.30
2022-11-20T20:37:16.776Z,65.80
2022-11-20T20:39:44.756Z,63.90
2022-11-20T20:42:13.010Z,64.50
2022-11-20T20:44:59.694Z,63.60
2022-11-20T20:47:32.088Z,63.50
2022-11-20T20:50:01.349Z,62.40
2022-11-20T20:52:29.485Z,66.30
2022-11-20T20:54:57.633Z,61.00
2022-11-20T20:57:25.894Z,73.10
2022-11-20T20:59:55.492Z,75.50
2022-11-20T21:02:24.175Z,67.30
2022-11-20T21:04:52.514Z,58.90
2022-11-20T21:07:20.936Z,61.50
2022-11-20T21:09:49.127Z,69.60
2022-11-20T21:12:17.351Z,60.60
2022-11-20T21:14:45.695Z,62.80
2022-11-20T21:17:17.363Z,63.70
2022-11-20T21:19:45.445Z,62.30
2022-11-20T21:22:13.743Z,61.20
2022-11-20T21:24:44.036Z,66.10
2022-11-20T21:27:12.219Z,62.60
2022-11-20T21:29:40.402Z,66.60
2022-11-20T21:32:08.462Z,61.50
2022-11-20T21:34:36.505Z,69.90
2022-11-20T21:37:05.831Z,62.30
2022-11-20T21:39:33.913Z,65.70
2022-11-20T21:42:02.233Z,62.60
2022-11-20T21:44:31.950Z,51.80
2022-11-20T21:47:00.446Z,55.40
2022-11-20T21:49:28.754Z,63.90
2022-11-20T21:51:57.092Z,56.90
2022-11-20T21:54:25.757Z,60.60
2022-11-20T21:56:54.045Z,56.10
2022-11-20T21:59:22.594Z,56.20
2022-11-20T22:01:51.167Z,56.30
2022-11-20T22:04:20.161Z,57.20
2022-11-20T22:06:48.840Z,72.00
2022-11-20T22:09:18.107Z,60.00
2022-11-20T22:11:46.364Z,59.40
2022-11-20T22:14:20.914Z,58.90
2022-11-20T22:16:50.593Z,58.50
2022-11-20T22:19:20.725Z,55.80
2022-11-20T22:21:50.886Z,60.20
2022-11-20T22:24:23.085Z,55.50
2022-11-20T22:26:51.847Z,62.70
2022-11-20T22:29:21.451Z,58.50
2022-11-20T22:31:57.835Z,58.90
2022-11-20T22:34:28.934Z,51.00
2022-11-20T22:39:25.324Z,48.30
2022-11-20T22:41:53.427Z,47.80
2022-11-20T22:44:22.523Z,50.30
2022-11-20T22:46:51.165Z,53.60
2022-11-20T22:49:19.321Z,51.30
2022-11-20T22:51:47.567Z,53.70
2022-11-20T22:54:16.017Z,55.40
2022-11-20T22:56:45.046Z,54.10
2022-11-20T22:59:13.299Z,49.70
2022-11-20T23:01:41.507Z,46.40
2022-11-20T23:04:11.124Z,49.80
2022-11-20T23:06:39.576Z,47.30
2022-11-20T23:09:10.288Z,45.00
2022-11-20T23:11:39.023Z,45.60
2022-11-20T23:14:13.375Z,45.30
2022-11-20T23:16:42.185Z,44.60
2022-11-20T23:19:13.238Z,47.20
2022-11-20T23:21:43.002Z,49.00
2022-11-20T23:24:11.462Z,40.20
2022-11-20T23:26:41.625Z,45.10
2022-11-20T23:29:10.307Z,51.30
2022-11-20T23:31:38.698Z,49.30
2022-11-20T23:34:07.022Z,54.20
2022-11-20T23:36:36.234Z,44.30
2022-11-20T23:39:04.533Z,48.40
2022-11-20T23:41:33.205Z,44.30
2022-11-20T23:44:01.337Z,48.90
2022-11-20T23:46:29.533Z,42.30
2022-11-20T23:48:57.644Z,41.90
2022-11-20T23:51:25.852Z,46.50
2022-11-20T23:53:54.078Z,45.60
2022-11-20T23:56:22.286Z,43.40
2022-11-20T23:58:50.465Z,38.20
